PWSweather.com
Personal Weather Stations
Station Observations
IACHARNE2
Acharnes, AthensGR

AcharnesAthensGR

Lat: 38.054318, Lon: 23.443547

Elevation: 640

Station Type: ProWeatherStation

http://www.meteoacharnes.gr

High Low Average
Temperature 37.8°F3.2°C 28.2°F-2.1°C 33.3°F0.7°C
Dew Point 35.8°F2.1°C 26.0°F-3.3°C 28.7°F-1.8°C
Winds 16.0 mph 25.7 kmh Calm Calm 3.0 mph SW4.8 kmh SW
Wind Gusts 38.7 mph62.3 kmh -- 9.0 mph14.5 kmh
Humidity 94% 70% 84%
Pressure 29.96 in1014.6 mb 29.74 in1007.1 mb -
Precipitation 0.04 in1.0 mm - -
Hour Temp Dew Point Humidity Winds Wind Gusts Pressure Precip Precip Rate Daily Precip Total
12:00 AM 28.2°F-2.1°C 26.0°F-3.3°C 91% Calm Calm 1.6 mph2.6 kmh 29.92 in1013.2 mb 0.00 in0.0 mm 0.00 in0.0 mm 0.00 in0.0 mm
12:05 AM 28.2°F-2.1°C 26.0°F-3.3°C 91% Calm Calm 1.6 mph2.6 kmh 29.91 in1012.9 mb 0.00 in0.0 mm 0.00 in0.0 mm 0.00 in0.0 mm
12:10 AM 28.4°F-2.0°C 26.1°F-3.3°C 91% Calm Calm 2.2 mph3.5 kmh 29.91 in1012.9 mb 0.00 in0.0 mm 0.00 in0.0 mm 0.00 in0.0 mm
12:15 AM 28.4°F-2.0°C 26.1°F-3.3°C 91% Calm Calm 2.2 mph3.5 kmh 29.91 in1012.9 mb 0.00 in0.0 mm 0.00 in0.0 mm 0.00 in0.0 mm
12:20 AM 28.6°F-1.9°C 26.6°F-3.0°C 92% Calm Calm 2.2 mph3.5 kmh 29.90 in1012.5 mb 0.00 in0.0 mm 0.00 in0.0 mm 0.00 in0.0 mm
12:25 AM 28.8°F-1.8°C 26.7°F-2.9°C 92% Calm Calm 2.2 mph3.5 kmh 29.91 in1012.9 mb 0.00 in0.0 mm 0.00 in0.0 mm 0.00 in0.0 mm
12:30 AM 28.8°F-1.8°C 26.7°F-2.9°C 92% Calm Calm 2.2 mph3.5 kmh 29.90 in1012.5 mb 0.00 in0.0 mm 0.00 in0.0 mm 0.00 in0.0 mm
12:35 AM 28.8°F-1.8°C 26.7°F-2.9°C 92% Calm Calm 1.6 mph2.6 kmh 29.90 in1012.5 mb 0.00 in0.0 mm 0.00 in0.0 mm 0.00 in0.0 mm
12:40 AM 28.8°F-1.8°C 26.7°F-2.9°C 92% Calm Calm 1.6 mph2.6 kmh 29.90 in1012.5 mb 0.00 in0.0 mm 0.00 in0.0 mm 0.00 in0.0 mm
12:45 AM 28.8°F-1.8°C 27.0°F-2.8°C 93% Calm Calm 0.7 mph1.1 kmh 29.89 in1012.2 mb 0.01 in0.3 mm 0.12 in3.0 mm 0.01 in0.3 mm
12:50 AM 28.9°F-1.7°C 27.2°F-2.7°C 93% Calm Calm 0.7 mph1.1 kmh 29.89 in1012.2 mb 0.03 in0.8 mm 0.24 in6.1 mm 0.03 in0.8 mm
12:52 AM 28.9°F-1.7°C 27.2°F-2.7°C 93% Calm Calm -- 29.89 in1012.2 mb 0.03 in0.8 mm 0.00 in0.0 mm 0.03 in0.8 mm
12:55 AM 29.1°F-1.6°C 27.4°F-2.6°C 93% Calm Calm 0.7 mph1.1 kmh 29.89 in1012.2 mb 0.03 in0.8 mm 0.00 in0.0 mm 0.03 in0.8 mm
01:00 AM 28.9°F-1.7°C 27.2°F-2.7°C 93% Calm Calm 0.7 mph1.1 kmh 29.89 in1012.2 mb 0.03 in0.8 mm 0.00 in0.0 mm 0.03 in0.8 mm
01:05 AM 29.1°F-1.6°C 27.4°F-2.6°C 93% Calm Calm 2.2 mph3.5 kmh 29.89 in1012.2 mb 0.03 in0.8 mm 0.00 in0.0 mm 0.03 in0.8 mm
01:10 AM 29.1°F-1.6°C 27.4°F-2.6°C 93% Calm Calm 3.1 mph5.0 kmh 29.89 in1012.2 mb 0.03 in0.8 mm 0.00 in0.0 mm 0.03 in0.8 mm
01:15 AM 29.1°F-1.6°C 27.6°F-2.4°C 94% Calm Calm 3.1 mph5.0 kmh 29.89 in1012.2 mb 0.03 in0.8 mm 0.00 in0.0 mm 0.03 in0.8 mm
01:20 AM 29.1°F-1.6°C 27.6°F-2.4°C 94% Calm Calm 1.6 mph2.6 kmh 29.88 in1011.9 mb 0.03 in0.8 mm 0.00 in0.0 mm 0.03 in0.8 mm
01:25 AM 29.1°F-1.6°C 27.6°F-2.4°C 94% Calm Calm 1.6 mph2.6 kmh 29.88 in1011.9 mb 0.03 in0.8 mm 0.00 in0.0 mm 0.03 in0.8 mm
01:30 AM 29.1°F-1.6°C 27.6°F-2.4°C 94% Calm Calm 1.6 mph2.6 kmh 29.88 in1011.9 mb 0.03 in0.8 mm 0.00 in0.0 mm 0.03 in0.8 mm
01:35 AM 29.1°F-1.6°C 27.6°F-2.4°C 94% Calm Calm 1.6 mph2.6 kmh 29.87 in1011.5 mb 0.03 in0.8 mm 0.00 in0.0 mm 0.03 in0.8 mm
01:40 AM 29.3°F-1.5°C 27.8°F-2.3°C 94% Calm Calm 1.6 mph2.6 kmh 29.87 in1011.5 mb 0.01 in0.3 mm 0.00 in0.0 mm 0.03 in0.8 mm
01:45 AM 29.1°F-1.6°C 27.6°F-2.4°C 94% Calm Calm 1.6 mph2.6 kmh 29.87 in1011.5 mb 0.00 in0.0 mm 0.00 in0.0 mm 0.03 in0.8 mm
01:50 AM 29.1°F-1.6°C 27.6°F-2.4°C 94% Calm Calm 1.6 mph2.6 kmh 29.87 in1011.5 mb 0.00 in0.0 mm 0.00 in0.0 mm 0.03 in0.8 mm
01:55 AM 29.1°F-1.6°C 27.6°F-2.4°C 94% Calm Calm 1.6 mph2.6 kmh 29.87 in1011.5 mb 0.00 in0.0 mm 0.00 in0.0 mm 0.03 in0.8 mm
02:00 AM 29.1°F-1.6°C 27.6°F-2.4°C 94% Calm Calm 1.6 mph2.6 kmh 29.87 in1011.5 mb 0.00 in0.0 mm 0.00 in0.0 mm 0.03 in0.8 mm
02:05 AM 29.1°F-1.6°C 27.6°F-2.4°C 94% Calm Calm 1.6 mph2.6 kmh 29.87 in1011.5 mb 0.00 in0.0 mm 0.00 in0.0 mm 0.03 in0.8 mm
02:10 AM 29.3°F-1.5°C 27.8°F-2.3°C 94% Calm Calm 2.2 mph3.5 kmh 29.87 in1011.5 mb 0.00 in0.0 mm 0.00 in0.0 mm 0.03 in0.8 mm
02:15 AM 29.3°F-1.5°C 27.8°F-2.3°C 94% Calm Calm 2.2 mph3.5 kmh 29.87 in1011.5 mb 0.00 in0.0 mm 0.00 in0.0 mm 0.03 in0.8 mm
02:20 AM 29.3°F-1.5°C 27.8°F-2.3°C 94% Calm Calm 0.7 mph1.1 kmh 29.86 in1011.2 mb 0.00 in0.0 mm 0.00 in0.0 mm 0.03 in0.8 mm
02:25 AM 29.1°F-1.6°C 27.6°F-2.4°C 94% Calm Calm 0.7 mph1.1 kmh 29.87 in1011.5 mb 0.00 in0.0 mm 0.00 in0.0 mm 0.03 in0.8 mm
02:30 AM 29.1°F-1.6°C 27.6°F-2.4°C 94% Calm Calm 0.7 mph1.1 kmh 29.87 in1011.5 mb 0.00 in0.0 mm 0.00 in0.0 mm 0.03 in0.8 mm
02:35 AM 29.1°F-1.6°C 27.6°F-2.4°C 94% Calm Calm 0.7 mph1.1 kmh 29.87 in1011.5 mb 0.00 in0.0 mm 0.00 in0.0 mm 0.03 in0.8 mm
02:40 AM 29.1°F-1.6°C 27.6°F-2.4°C 94% Calm Calm 0.7 mph1.1 kmh 29.86 in1011.2 mb 0.00 in0.0 mm 0.00 in0.0 mm 0.03 in0.8 mm
02:45 AM 29.3°F-1.5°C 27.8°F-2.3°C 94% Calm Calm -- 29.86 in1011.2 mb 0.00 in0.0 mm 0.00 in0.0 mm 0.03 in0.8 mm
02:50 AM 29.1°F-1.6°C 27.6°F-2.4°C 94% Calm Calm -- 29.86 in1011.2 mb 0.00 in0.0 mm 0.00 in0.0 mm 0.03 in0.8 mm
02:55 AM 29.1°F-1.6°C 27.6°F-2.4°C 94% Calm Calm -- 29.86 in1011.2 mb 0.01 in0.3 mm 0.12 in3.0 mm 0.04 in1.0 mm
03:00 AM 29.1°F-1.6°C 27.6°F-2.4°C 94% Calm Calm -- 29.86 in1011.2 mb 0.01 in0.3 mm 0.00 in0.0 mm 0.04 in1.0 mm
03:05 AM 29.1°F-1.6°C 27.6°F-2.4°C 94% Calm Calm -- 29.85 in1010.8 mb 0.01 in0.3 mm 0.00 in0.0 mm 0.04 in1.0 mm
03:10 AM 29.1°F-1.6°C 27.6°F-2.4°C 94% Calm Calm -- 29.85 in1010.8 mb 0.01 in0.3 mm 0.00 in0.0 mm 0.04 in1.0 mm
03:15 AM 29.3°F-1.5°C 27.8°F-2.3°C 94% Calm Calm 1.6 mph2.6 kmh 29.85 in1010.8 mb 0.01 in0.3 mm 0.00 in0.0 mm 0.04 in1.0 mm
03:20 AM 29.1°F-1.6°C 27.6°F-2.4°C 94% Calm Calm 1.6 mph2.6 kmh 29.84 in1010.5 mb 0.01 in0.3 mm 0.00 in0.0 mm 0.04 in1.0 mm
03:25 AM 29.1°F-1.6°C 27.6°F-2.4°C 94% Calm Calm 1.6 mph2.6 kmh 29.85 in1010.8 mb 0.01 in0.3 mm 0.00 in0.0 mm 0.04 in1.0 mm
03:30 AM 29.1°F-1.6°C 27.6°F-2.4°C 94% Calm Calm 0.7 mph1.1 kmh 29.85 in1010.8 mb 0.01 in0.3 mm 0.00 in0.0 mm 0.04 in1.0 mm
03:35 AM 29.3°F-1.5°C 27.8°F-2.3°C 94% Calm Calm 1.6 mph2.6 kmh 29.85 in1010.8 mb 0.01 in0.3 mm 0.00 in0.0 mm 0.04 in1.0 mm
03:40 AM 29.3°F-1.5°C 27.8°F-2.3°C 94% Calm Calm 1.6 mph2.6 kmh 29.84 in1010.5 mb 0.01 in0.3 mm 0.00 in0.0 mm 0.04 in1.0 mm
03:45 AM 29.3°F-1.5°C 27.8°F-2.3°C 94% Calm Calm 1.6 mph2.6 kmh 29.84 in1010.5 mb 0.01 in0.3 mm 0.00 in0.0 mm 0.04 in1.0 mm
03:50 AM 29.3°F-1.5°C 27.8°F-2.3°C 94% Calm Calm 1.6 mph2.6 kmh 29.84 in1010.5 mb 0.01 in0.3 mm 0.00 in0.0 mm 0.04 in1.0 mm
03:55 AM 29.3°F-1.5°C 27.8°F-2.3°C 94% Calm Calm 1.6 mph2.6 kmh 29.84 in1010.5 mb 0.00 in0.0 mm 0.00 in0.0 mm 0.04 in1.0 mm
04:00 AM 29.1°F-1.6°C 27.6°F-2.4°C 94% Calm Calm 1.6 mph2.6 kmh 29.84 in1010.5 mb 0.00 in0.0 mm 0.00 in0.0 mm 0.04 in1.0 mm
04:05 AM 29.3°F-1.5°C 27.8°F-2.3°C 94% Calm Calm 1.6 mph2.6 kmh 29.84 in1010.5 mb 0.00 in0.0 mm 0.00 in0.0 mm 0.04 in1.0 mm
04:10 AM 29.1°F-1.6°C 27.6°F-2.4°C 94% Calm Calm 0.7 mph1.1 kmh 29.83 in1010.2 mb 0.00 in0.0 mm 0.00 in0.0 mm 0.04 in1.0 mm
04:15 AM 29.1°F-1.6°C 27.6°F-2.4°C 94% Calm Calm 2.2 mph3.5 kmh 29.84 in1010.5 mb 0.00 in0.0 mm 0.00 in0.0 mm 0.04 in1.0 mm
04:20 AM 29.1°F-1.6°C 27.6°F-2.4°C 94% Calm Calm 2.2 mph3.5 kmh 29.84 in1010.5 mb 0.00 in0.0 mm 0.00 in0.0 mm 0.04 in1.0 mm
04:25 AM 29.1°F-1.6°C 27.6°F-2.4°C 94% Calm Calm 0.7 mph1.1 kmh 29.84 in1010.5 mb 0.00 in0.0 mm 0.00 in0.0 mm 0.04 in1.0 mm
04:30 AM 29.3°F-1.5°C 27.8°F-2.3°C 94% Calm Calm 0.7 mph1.1 kmh 29.84 in1010.5 mb 0.00 in0.0 mm 0.00 in0.0 mm 0.04 in1.0 mm
04:35 AM 29.1°F-1.6°C 27.6°F-2.4°C 94% Calm Calm 0.7 mph1.1 kmh 29.83 in1010.2 mb 0.00 in0.0 mm 0.00 in0.0 mm 0.04 in1.0 mm
04:40 AM 28.8°F-1.8°C 27.3°F-2.6°C 94% Calm Calm 0.7 mph1.1 kmh 29.82 in1009.8 mb 0.00 in0.0 mm 0.00 in0.0 mm 0.04 in1.0 mm
04:45 AM 29.1°F-1.6°C 27.6°F-2.4°C 94% Calm Calm 1.6 mph2.6 kmh 29.83 in1010.2 mb 0.00 in0.0 mm 0.00 in0.0 mm 0.04 in1.0 mm
04:50 AM 29.1°F-1.6°C 27.6°F-2.4°C 94% Calm Calm 1.6 mph2.6 kmh 29.82 in1009.8 mb 0.00 in0.0 mm 0.00 in0.0 mm 0.04 in1.0 mm
04:55 AM 29.1°F-1.6°C 27.6°F-2.4°C 94% Calm Calm 0.7 mph1.1 kmh 29.82 in1009.8 mb 0.00 in0.0 mm 0.00 in0.0 mm 0.04 in1.0 mm
05:00 AM 29.3°F-1.5°C 27.8°F-2.3°C 94% Calm Calm -- 29.81 in1009.5 mb 0.00 in0.0 mm 0.00 in0.0 mm 0.04 in1.0 mm
05:05 AM 29.3°F-1.5°C 27.8°F-2.3°C 94% Calm Calm 1.6 mph2.6 kmh 29.81 in1009.5 mb 0.00 in0.0 mm 0.00 in0.0 mm 0.04 in1.0 mm
05:10 AM 29.3°F-1.5°C 27.8°F-2.3°C 94% Calm Calm 1.6 mph2.6 kmh 29.81 in1009.5 mb 0.00 in0.0 mm 0.00 in0.0 mm 0.04 in1.0 mm
05:15 AM 29.3°F-1.5°C 27.8°F-2.3°C 94% Calm Calm 0.7 mph1.1 kmh 29.81 in1009.5 mb 0.00 in0.0 mm 0.00 in0.0 mm 0.04 in1.0 mm
05:20 AM 29.5°F-1.4°C 28.0°F-2.2°C 94% Calm Calm 0.7 mph1.1 kmh 29.81 in1009.5 mb 0.00 in0.0 mm 0.00 in0.0 mm 0.04 in1.0 mm
05:25 AM 29.3°F-1.5°C 27.8°F-2.3°C 94% Calm Calm 1.6 mph2.6 kmh 29.81 in1009.5 mb 0.00 in0.0 mm 0.00 in0.0 mm 0.04 in1.0 mm
05:30 AM 29.8°F-1.2°C 28.3°F-2.1°C 94% Calm Calm 3.1 mph5.0 kmh 29.81 in1009.5 mb 0.00 in0.0 mm 0.00 in0.0 mm 0.04 in1.0 mm
05:35 AM 29.5°F-1.4°C 28.0°F-2.2°C 94% Calm Calm 3.1 mph5.0 kmh 29.81 in1009.5 mb 0.00 in0.0 mm 0.00 in0.0 mm 0.04 in1.0 mm
05:40 AM 29.3°F-1.5°C 27.8°F-2.3°C 94% Calm Calm 1.6 mph2.6 kmh 29.81 in1009.5 mb 0.00 in0.0 mm 0.00 in0.0 mm 0.04 in1.0 mm
05:45 AM 29.3°F-1.5°C 27.8°F-2.3°C 94% Calm Calm 0.7 mph1.1 kmh 29.81 in1009.5 mb 0.00 in0.0 mm 0.00 in0.0 mm 0.04 in1.0 mm
05:50 AM 29.5°F-1.4°C 28.0°F-2.2°C 94% Calm Calm 0.7 mph1.1 kmh 29.81 in1009.5 mb 0.00 in0.0 mm 0.00 in0.0 mm 0.04 in1.0 mm
05:55 AM 29.5°F-1.4°C 28.0°F-2.2°C 94% Calm Calm 0.7 mph1.1 kmh 29.80 in1009.1 mb 0.00 in0.0 mm 0.00 in0.0 mm 0.04 in1.0 mm
06:00 AM 29.7°F-1.3°C 28.2°F-2.1°C 94% Calm Calm 3.1 mph5.0 kmh 29.80 in1009.1 mb 0.00 in0.0 mm 0.00 in0.0 mm 0.04 in1.0 mm
06:05 AM 29.7°F-1.3°C 28.2°F-2.1°C 94% Calm Calm 3.1 mph5.0 kmh 29.80 in1009.1 mb 0.00 in0.0 mm 0.00 in0.0 mm 0.04 in1.0 mm
06:10 AM 29.7°F-1.3°C 28.2°F-2.1°C 94% Calm Calm 0.7 mph1.1 kmh 29.80 in1009.1 mb 0.00 in0.0 mm 0.00 in0.0 mm 0.04 in1.0 mm
06:15 AM 29.7°F-1.3°C 28.2°F-2.1°C 94% Calm Calm 0.7 mph1.1 kmh 29.80 in1009.1 mb 0.00 in0.0 mm 0.00 in0.0 mm 0.04 in1.0 mm
06:20 AM 29.7°F-1.3°C 28.2°F-2.1°C 94% Calm Calm 0.7 mph1.1 kmh 29.79 in1008.8 mb 0.00 in0.0 mm 0.00 in0.0 mm 0.04 in1.0 mm
06:25 AM 29.7°F-1.3°C 28.2°F-2.1°C 94% Calm Calm 0.7 mph1.1 kmh 29.79 in1008.8 mb 0.00 in0.0 mm 0.00 in0.0 mm 0.04 in1.0 mm
06:30 AM 29.8°F-1.2°C 28.3°F-2.1°C 94% Calm Calm 0.7 mph1.1 kmh 29.78 in1008.5 mb 0.00 in0.0 mm 0.00 in0.0 mm 0.04 in1.0 mm
06:35 AM 29.8°F-1.2°C 28.3°F-2.1°C 94% Calm Calm -- 29.79 in1008.8 mb 0.00 in0.0 mm 0.00 in0.0 mm 0.04 in1.0 mm
06:40 AM 29.8°F-1.2°C 28.3°F-2.1°C 94% Calm Calm -- 29.78 in1008.5 mb 0.00 in0.0 mm 0.00 in0.0 mm 0.04 in1.0 mm
06:45 AM 29.8°F-1.2°C 28.3°F-2.1°C 94% Calm Calm -- 29.78 in1008.5 mb 0.00 in0.0 mm 0.00 in0.0 mm 0.04 in1.0 mm
06:50 AM 29.8°F-1.2°C 28.3°F-2.1°C 94% Calm Calm 1.6 mph2.6 kmh 29.79 in1008.8 mb 0.00 in0.0 mm 0.00 in0.0 mm 0.04 in1.0 mm
06:55 AM 29.7°F-1.3°C 28.2°F-2.1°C 94% Calm Calm 2.2 mph3.5 kmh 29.79 in1008.8 mb 0.00 in0.0 mm 0.00 in0.0 mm 0.04 in1.0 mm
07:00 AM 29.8°F-1.2°C 28.3°F-2.1°C 94% Calm Calm 2.2 mph3.5 kmh 29.78 in1008.5 mb 0.00 in0.0 mm 0.00 in0.0 mm 0.04 in1.0 mm
07:05 AM 29.5°F-1.4°C 28.0°F-2.2°C 94% Calm Calm 1.6 mph2.6 kmh 29.78 in1008.5 mb 0.00 in0.0 mm 0.00 in0.0 mm 0.04 in1.0 mm
07:10 AM 29.7°F-1.3°C 28.2°F-2.1°C 94% Calm Calm 2.2 mph3.5 kmh 29.79 in1008.8 mb 0.00 in0.0 mm 0.00 in0.0 mm 0.04 in1.0 mm
07:15 AM 29.5°F-1.4°C 28.0°F-2.2°C 94% Calm Calm 2.2 mph3.5 kmh 29.78 in1008.5 mb 0.00 in0.0 mm 0.00 in0.0 mm 0.04 in1.0 mm
07:20 AM 29.5°F-1.4°C 28.0°F-2.2°C 94% Calm Calm 2.2 mph3.5 kmh 29.78 in1008.5 mb 0.00 in0.0 mm 0.00 in0.0 mm 0.04 in1.0 mm
07:25 AM 29.7°F-1.3°C 28.2°F-2.1°C 94% Calm Calm 0.7 mph1.1 kmh 29.79 in1008.8 mb 0.00 in0.0 mm 0.00 in0.0 mm 0.04 in1.0 mm
07:30 AM 29.5°F-1.4°C 28.0°F-2.2°C 94% Calm Calm 0.7 mph1.1 kmh 29.79 in1008.8 mb 0.00 in0.0 mm 0.00 in0.0 mm 0.04 in1.0 mm
07:35 AM 29.5°F-1.4°C 28.0°F-2.2°C 94% Calm Calm 2.2 mph3.5 kmh 29.79 in1008.8 mb 0.00 in0.0 mm 0.00 in0.0 mm 0.04 in1.0 mm
07:40 AM 29.7°F-1.3°C 28.2°F-2.1°C 94% Calm Calm 2.2 mph3.5 kmh 29.79 in1008.8 mb 0.00 in0.0 mm 0.00 in0.0 mm 0.04 in1.0 mm
07:45 AM 29.7°F-1.3°C 28.2°F-2.1°C 94% Calm Calm 1.6 mph2.6 kmh 29.79 in1008.8 mb 0.00 in0.0 mm 0.00 in0.0 mm 0.04 in1.0 mm
07:50 AM 29.7°F-1.3°C 28.2°F-2.1°C 94% Calm Calm 0.7 mph1.1 kmh 29.79 in1008.8 mb 0.00 in0.0 mm 0.00 in0.0 mm 0.04 in1.0 mm
07:55 AM 29.8°F-1.2°C 28.3°F-2.1°C 94% 0.1 mph SW0.2 kmh SW 3.8 mph6.1 kmh 29.79 in1008.8 mb 0.00 in0.0 mm 0.00 in0.0 mm 0.04 in1.0 mm
08:00 AM 29.8°F-1.2°C 28.3°F-2.1°C 94% 0.1 mph SW0.2 kmh SW 3.8 mph6.1 kmh 29.79 in1008.8 mb 0.00 in0.0 mm 0.00 in0.0 mm 0.04 in1.0 mm
08:05 AM 30.7°F-0.7°C 29.2°F-1.6°C 94% Calm Calm 2.2 mph3.5 kmh 29.79 in1008.8 mb 0.00 in0.0 mm 0.00 in0.0 mm 0.04 in1.0 mm
08:10 AM 29.8°F-1.2°C 28.3°F-2.1°C 94% Calm Calm 2.2 mph3.5 kmh 29.79 in1008.8 mb 0.00 in0.0 mm 0.00 in0.0 mm 0.04 in1.0 mm
08:15 AM 29.8°F-1.2°C 28.3°F-2.1°C 94% Calm Calm 2.2 mph3.5 kmh 29.78 in1008.5 mb 0.00 in0.0 mm 0.00 in0.0 mm 0.04 in1.0 mm
08:20 AM 30.0°F-1.1°C 28.5°F-1.9°C 94% Calm Calm 0.7 mph1.1 kmh 29.78 in1008.5 mb 0.00 in0.0 mm 0.00 in0.0 mm 0.04 in1.0 mm
08:25 AM 30.2°F-1.0°C 28.7°F-1.8°C 94% Calm Calm 0.7 mph1.1 kmh 29.79 in1008.8 mb 0.00 in0.0 mm 0.00 in0.0 mm 0.04 in1.0 mm
08:30 AM 30.2°F-1.0°C 28.7°F-1.8°C 94% Calm Calm -- 29.78 in1008.5 mb 0.00 in0.0 mm 0.00 in0.0 mm 0.04 in1.0 mm
08:35 AM 30.2°F-1.0°C 28.7°F-1.8°C 94% Calm Calm -- 29.78 in1008.5 mb 0.00 in0.0 mm 0.00 in0.0 mm 0.04 in1.0 mm
08:40 AM 30.0°F-1.1°C 28.5°F-1.9°C 94% Calm Calm -- 29.78 in1008.5 mb 0.00 in0.0 mm 0.00 in0.0 mm 0.04 in1.0 mm
08:45 AM 30.4°F-0.9°C 28.9°F-1.7°C 94% Calm Calm -- 29.78 in1008.5 mb 0.00 in0.0 mm 0.00 in0.0 mm 0.04 in1.0 mm
08:50 AM 30.4°F-0.9°C 28.9°F-1.7°C 94% Calm Calm 1.6 mph2.6 kmh 29.78 in1008.5 mb 0.00 in0.0 mm 0.00 in0.0 mm 0.04 in1.0 mm
08:55 AM 30.6°F-0.8°C 29.1°F-1.6°C 94% 0.5 mph SW0.8 kmh SW 5.4 mph8.7 kmh 29.78 in1008.5 mb 0.00 in0.0 mm 0.00 in0.0 mm 0.04 in1.0 mm
09:00 AM 31.1°F-0.5°C 29.6°F-1.3°C 94% 1.8 mph SW2.9 kmh SW 6.9 mph11.1 kmh 29.78 in1008.5 mb 0.00 in0.0 mm 0.00 in0.0 mm 0.04 in1.0 mm
09:05 AM 30.4°F-0.9°C 28.9°F-1.7°C 94% 2.4 mph SW3.9 kmh SW 6.9 mph11.1 kmh 29.78 in1008.5 mb 0.00 in0.0 mm 0.00 in0.0 mm 0.04 in1.0 mm
09:10 AM 30.9°F-0.6°C 29.4°F-1.4°C 94% 2.2 mph SSW3.5 kmh SSW 6.9 mph11.1 kmh 29.78 in1008.5 mb 0.00 in0.0 mm 0.00 in0.0 mm 0.04 in1.0 mm
09:15 AM 30.9°F-0.6°C 29.4°F-1.4°C 94% 2.8 mph SSW4.5 kmh SSW 6.0 mph9.7 kmh 29.78 in1008.5 mb 0.00 in0.0 mm 0.00 in0.0 mm 0.04 in1.0 mm
09:20 AM 30.7°F-0.7°C 29.2°F-1.6°C 94% 3.0 mph SW4.8 kmh SW 6.0 mph9.7 kmh 29.79 in1008.8 mb 0.00 in0.0 mm 0.00 in0.0 mm 0.04 in1.0 mm
09:25 AM 30.7°F-0.7°C 29.2°F-1.6°C 94% 2.3 mph SSW3.7 kmh SSW 6.0 mph9.7 kmh 29.79 in1008.8 mb 0.00 in0.0 mm 0.00 in0.0 mm 0.04 in1.0 mm
09:30 AM 30.7°F-0.7°C 29.2°F-1.6°C 94% 1.1 mph SSW1.8 kmh SSW 5.4 mph8.7 kmh 29.79 in1008.8 mb 0.00 in0.0 mm 0.00 in0.0 mm 0.04 in1.0 mm
09:35 AM 31.1°F-0.5°C 29.6°F-1.3°C 94% 0.3 mph SW0.5 kmh SW 3.8 mph6.1 kmh 29.79 in1008.8 mb 0.00 in0.0 mm 0.00 in0.0 mm 0.04 in1.0 mm
09:40 AM 31.3°F-0.4°C 29.8°F-1.2°C 94% 0.9 mph SW1.4 kmh SW 4.5 mph7.2 kmh 29.78 in1008.5 mb 0.00 in0.0 mm 0.00 in0.0 mm 0.04 in1.0 mm
09:45 AM 31.6°F-0.2°C 30.1°F-1.1°C 94% 1.3 mph SW2.1 kmh SW 5.4 mph8.7 kmh 29.79 in1008.8 mb 0.00 in0.0 mm 0.00 in0.0 mm 0.04 in1.0 mm
09:50 AM 31.6°F-0.2°C 30.1°F-1.1°C 94% 1.8 mph NW2.9 kmh NW 5.4 mph8.7 kmh 29.79 in1008.8 mb 0.00 in0.0 mm 0.00 in0.0 mm 0.04 in1.0 mm
09:55 AM 31.8°F-0.1°C 30.3°F-0.9°C 94% 1.6 mph N2.6 kmh N 5.4 mph8.7 kmh 29.79 in1008.8 mb 0.00 in0.0 mm 0.00 in0.0 mm 0.04 in1.0 mm
10:00 AM 32.0°F0.0°C 30.5°F-0.8°C 94% 1.3 mph NE2.1 kmh NE 4.5 mph7.2 kmh 29.79 in1008.8 mb 0.00 in0.0 mm 0.00 in0.0 mm 0.04 in1.0 mm
10:05 AM 32.0°F0.0°C 30.5°F-0.8°C 94% 1.9 mph SSW3.1 kmh SSW 9.2 mph14.8 kmh 29.79 in1008.8 mb 0.00 in0.0 mm 0.00 in0.0 mm 0.04 in1.0 mm
10:10 AM 32.0°F0.0°C 30.5°F-0.8°C 94% 4.3 mph WNW6.9 kmh WNW 15.9 mph25.6 kmh 29.79 in1008.8 mb 0.00 in0.0 mm 0.00 in0.0 mm 0.04 in1.0 mm
10:15 AM 32.0°F0.0°C 30.5°F-0.8°C 94% 5.6 mph NW9.0 kmh NW 15.9 mph25.6 kmh 29.79 in1008.8 mb 0.00 in0.0 mm 0.00 in0.0 mm 0.04 in1.0 mm
10:20 AM 32.4°F0.2°C 30.8°F-0.7°C 94% 3.7 mph NW6.0 kmh NW 13.6 mph21.9 kmh 29.79 in1008.8 mb 0.00 in0.0 mm 0.00 in0.0 mm 0.04 in1.0 mm
10:25 AM 33.1°F0.6°C 31.6°F-0.2°C 94% 1.6 mph NNW2.6 kmh NNW 6.0 mph9.7 kmh 29.79 in1008.8 mb 0.00 in0.0 mm 0.00 in0.0 mm 0.04 in1.0 mm
10:30 AM 33.8°F1.0°C 32.3°F0.2°C 94% 1.0 mph NW1.6 kmh NW 5.4 mph8.7 kmh 29.79 in1008.8 mb 0.00 in0.0 mm 0.00 in0.0 mm 0.04 in1.0 mm
10:35 AM 35.1°F1.7°C 33.5°F0.8°C 94% 1.0 mph NNE1.6 kmh NNE 5.4 mph8.7 kmh 29.79 in1008.8 mb 0.00 in0.0 mm 0.00 in0.0 mm 0.04 in1.0 mm
10:40 AM 36.0°F2.2°C 34.4°F1.3°C 94% 1.3 mph ESE2.1 kmh ESE 4.5 mph7.2 kmh 29.79 in1008.8 mb 0.00 in0.0 mm 0.00 in0.0 mm 0.04 in1.0 mm
10:45 AM 36.3°F2.4°C 34.8°F1.6°C 94% 1.2 mph SE1.9 kmh SE 4.5 mph7.2 kmh 29.79 in1008.8 mb 0.00 in0.0 mm 0.00 in0.0 mm 0.04 in1.0 mm
10:50 AM 36.7°F2.6°C 35.1°F1.7°C 94% 1.0 mph ESE1.6 kmh ESE 3.1 mph5.0 kmh 29.79 in1008.8 mb 0.00 in0.0 mm 0.00 in0.0 mm 0.04 in1.0 mm
10:55 AM 37.0°F2.8°C 35.5°F1.9°C 94% 1.2 mph SE1.9 kmh SE 3.8 mph6.1 kmh 29.78 in1008.5 mb 0.00 in0.0 mm 0.00 in0.0 mm 0.04 in1.0 mm
11:00 AM 37.4°F3.0°C 35.8°F2.1°C 94% 1.3 mph SSE2.1 kmh SSE 4.5 mph7.2 kmh 29.78 in1008.5 mb 0.00 in0.0 mm 0.00 in0.0 mm 0.04 in1.0 mm
11:05 AM 37.4°F3.0°C 35.8°F2.1°C 94% 1.4 mph WSW2.3 kmh WSW 6.0 mph9.7 kmh 29.78 in1008.5 mb 0.00 in0.0 mm 0.00 in0.0 mm 0.04 in1.0 mm
11:10 AM 37.2°F2.9°C 35.4°F1.9°C 93% 1.9 mph E3.1 kmh E 6.0 mph9.7 kmh 29.78 in1008.5 mb 0.00 in0.0 mm 0.00 in0.0 mm 0.04 in1.0 mm
11:15 AM 37.0°F2.8°C 34.9°F1.6°C 92% 2.2 mph E3.5 kmh E 6.0 mph9.7 kmh 29.77 in1008.1 mb 0.00 in0.0 mm 0.00 in0.0 mm 0.04 in1.0 mm
11:20 AM 36.9°F2.7°C 34.5°F1.4°C 91% 1.8 mph S2.9 kmh S 5.4 mph8.7 kmh 29.77 in1008.1 mb 0.00 in0.0 mm 0.00 in0.0 mm 0.04 in1.0 mm
11:25 AM 36.7°F2.6°C 34.3°F1.3°C 91% 1.2 mph S1.9 kmh S 4.5 mph7.2 kmh 29.77 in1008.1 mb 0.00 in0.0 mm 0.00 in0.0 mm 0.04 in1.0 mm
11:30 AM 36.5°F2.5°C 33.9°F1.1°C 90% 1.5 mph SSW2.4 kmh SSW 6.0 mph9.7 kmh 29.77 in1008.1 mb 0.00 in0.0 mm 0.00 in0.0 mm 0.04 in1.0 mm
11:35 AM 36.9°F2.7°C 33.9°F1.1°C 89% 2.6 mph SW4.2 kmh SW 6.0 mph9.7 kmh 29.77 in1008.1 mb 0.00 in0.0 mm 0.00 in0.0 mm 0.04 in1.0 mm
11:40 AM 36.7°F2.6°C 33.8°F1.0°C 89% 2.6 mph SSW4.2 kmh SSW 6.9 mph11.1 kmh 29.77 in1008.1 mb 0.00 in0.0 mm 0.00 in0.0 mm 0.04 in1.0 mm
11:45 AM 36.5°F2.5°C 33.3°F0.7°C 88% 3.4 mph SSW5.5 kmh SSW 8.3 mph13.4 kmh 29.77 in1008.1 mb 0.00 in0.0 mm 0.00 in0.0 mm 0.04 in1.0 mm
11:50 AM 36.5°F2.5°C 33.3°F0.7°C 88% 3.9 mph SW6.3 kmh SW 9.2 mph14.8 kmh 29.76 in1007.8 mb 0.00 in0.0 mm 0.00 in0.0 mm 0.04 in1.0 mm
11:55 AM 36.7°F2.6°C 33.2°F0.7°C 87% 3.8 mph W6.1 kmh W 11.4 mph18.3 kmh 29.76 in1007.8 mb 0.00 in0.0 mm 0.00 in0.0 mm 0.04 in1.0 mm
12:00 PM 37.0°F2.8°C 33.3°F0.7°C 86% 4.4 mph NW7.1 kmh NW 11.4 mph18.3 kmh 29.76 in1007.8 mb 0.00 in0.0 mm 0.00 in0.0 mm 0.04 in1.0 mm
12:05 PM 37.0°F2.8°C 32.7°F0.4°C 84% 5.0 mph NW8.0 kmh NW 15.9 mph25.6 kmh 29.76 in1007.8 mb 0.00 in0.0 mm 0.00 in0.0 mm 0.04 in1.0 mm
12:10 PM 37.0°F2.8°C 32.1°F0.1°C 82% 6.7 mph NW10.8 kmh NW 15.9 mph25.6 kmh 29.75 in1007.5 mb 0.00 in0.0 mm 0.00 in0.0 mm 0.04 in1.0 mm
12:15 PM 37.0°F2.8°C 32.1°F0.1°C 82% 5.9 mph NW9.5 kmh NW 15.9 mph25.6 kmh 29.75 in1007.5 mb 0.00 in0.0 mm 0.00 in0.0 mm 0.04 in1.0 mm
12:20 PM 37.2°F2.9°C 31.9°F-0.1°C 81% 5.1 mph WNW8.2 kmh WNW 14.5 mph23.3 kmh 29.75 in1007.5 mb 0.00 in0.0 mm 0.00 in0.0 mm 0.04 in1.0 mm
12:25 PM 37.4°F3.0°C 32.1°F0.1°C 81% 6.2 mph W10.0 kmh W 14.5 mph23.3 kmh 29.76 in1007.8 mb 0.00 in0.0 mm 0.00 in0.0 mm 0.04 in1.0 mm
12:30 PM 37.6°F3.1°C 31.4°F-0.3°C 78% 7.3 mph W11.7 kmh W 26.6 mph42.8 kmh 29.76 in1007.8 mb 0.00 in0.0 mm 0.00 in0.0 mm 0.04 in1.0 mm
12:35 PM 37.4°F3.0°C 30.9°F-0.6°C 77% 8.4 mph NW13.5 kmh NW 26.6 mph42.8 kmh 29.75 in1007.5 mb 0.00 in0.0 mm 0.00 in0.0 mm 0.04 in1.0 mm
12:40 PM 37.2°F2.9°C 30.7°F-0.7°C 77% 7.5 mph NW12.1 kmh NW 22.1 mph35.6 kmh 29.75 in1007.5 mb 0.00 in0.0 mm 0.00 in0.0 mm 0.04 in1.0 mm
12:45 PM 37.0°F2.8°C 30.2°F-1.0°C 76% 7.6 mph NW12.2 kmh NW 21.3 mph34.3 kmh 29.75 in1007.5 mb 0.00 in0.0 mm 0.00 in0.0 mm 0.04 in1.0 mm
12:50 PM 36.5°F2.5°C 29.7°F-1.3°C 76% 9.7 mph NNW15.6 kmh NNW 23.5 mph37.8 kmh 29.75 in1007.5 mb 0.00 in0.0 mm 0.00 in0.0 mm 0.04 in1.0 mm
12:55 PM 36.5°F2.5°C 29.3°F-1.5°C 75% 11.7 mph NW18.8 kmh NW 28.9 mph46.5 kmh 29.75 in1007.5 mb 0.00 in0.0 mm 0.00 in0.0 mm 0.04 in1.0 mm
01:00 PM 36.3°F2.4°C 29.2°F-1.6°C 75% 11.0 mph NW17.7 kmh NW 28.9 mph46.5 kmh 29.75 in1007.5 mb 0.00 in0.0 mm 0.00 in0.0 mm 0.04 in1.0 mm
01:05 PM 36.3°F2.4°C 29.2°F-1.6°C 75% 9.1 mph NNW14.6 kmh NNW 25.9 mph41.7 kmh 29.75 in1007.5 mb 0.00 in0.0 mm 0.00 in0.0 mm 0.04 in1.0 mm
01:10 PM 36.5°F2.5°C 29.3°F-1.5°C 75% 9.3 mph NW15.0 kmh NW 23.5 mph37.8 kmh 29.75 in1007.5 mb 0.00 in0.0 mm 0.00 in0.0 mm 0.04 in1.0 mm
01:15 PM 36.0°F2.2°C 28.5°F-1.9°C 74% 11.9 mph WNW19.2 kmh WNW 36.5 mph58.7 kmh 29.75 in1007.5 mb 0.00 in0.0 mm 0.00 in0.0 mm 0.04 in1.0 mm
01:20 PM 35.6°F2.0°C 28.1°F-2.2°C 74% 15.7 mph NW25.3 kmh NW 38.7 mph62.3 kmh 29.75 in1007.5 mb 0.00 in0.0 mm 0.00 in0.0 mm 0.04 in1.0 mm
01:25 PM 35.2°F1.8°C 28.1°F-2.2°C 75% 16.0 mph NNW25.7 kmh NNW 38.7 mph62.3 kmh 29.74 in1007.1 mb 0.00 in0.0 mm 0.00 in0.0 mm 0.04 in1.0 mm
01:30 PM 35.1°F1.7°C 28.0°F-2.2°C 75% 14.3 mph NNW23.0 kmh NNW 35.8 mph57.6 kmh 29.75 in1007.5 mb 0.00 in0.0 mm 0.00 in0.0 mm 0.04 in1.0 mm
01:35 PM 35.1°F1.7°C 28.0°F-2.2°C 75% 14.5 mph NW23.3 kmh NW 38.0 mph61.2 kmh 29.76 in1007.8 mb 0.00 in0.0 mm 0.00 in0.0 mm 0.04 in1.0 mm
01:40 PM 34.9°F1.6°C 27.5°F-2.5°C 74% 14.8 mph NW23.8 kmh NW 38.0 mph61.2 kmh 29.76 in1007.8 mb 0.00 in0.0 mm 0.00 in0.0 mm 0.04 in1.0 mm
01:45 PM 35.1°F1.7°C 27.6°F-2.4°C 74% 13.5 mph NNW21.7 kmh NNW 32.0 mph51.5 kmh 29.76 in1007.8 mb 0.00 in0.0 mm 0.00 in0.0 mm 0.04 in1.0 mm
01:50 PM 35.1°F1.7°C 27.6°F-2.4°C 74% 13.2 mph NW21.2 kmh NW 32.0 mph51.5 kmh 29.75 in1007.5 mb 0.00 in0.0 mm 0.00 in0.0 mm 0.04 in1.0 mm
01:55 PM 35.1°F1.7°C 27.3°F-2.6°C 73% 13.6 mph NNW21.9 kmh NNW 31.1 mph50.1 kmh 29.76 in1007.8 mb 0.00 in0.0 mm 0.00 in0.0 mm 0.04 in1.0 mm
02:00 PM 35.1°F1.7°C 27.3°F-2.6°C 73% 13.2 mph N21.2 kmh N 32.7 mph52.6 kmh 29.75 in1007.5 mb 0.00 in0.0 mm 0.00 in0.0 mm 0.04 in1.0 mm
02:05 PM 35.1°F1.7°C 27.3°F-2.6°C 73% 13.7 mph NNW22.0 kmh NNW 34.9 mph56.2 kmh 29.76 in1007.8 mb 0.00 in0.0 mm 0.00 in0.0 mm 0.04 in1.0 mm
02:10 PM 35.1°F1.7°C 27.3°F-2.6°C 73% 14.9 mph NNW24.0 kmh NNW 34.9 mph56.2 kmh 29.76 in1007.8 mb 0.00 in0.0 mm 0.00 in0.0 mm 0.04 in1.0 mm
02:15 PM 35.2°F1.8°C 27.1°F-2.7°C 72% 12.5 mph NNW20.1 kmh NNW 34.9 mph56.2 kmh 29.76 in1007.8 mb 0.00 in0.0 mm 0.00 in0.0 mm 0.04 in1.0 mm
02:20 PM 35.4°F1.9°C 27.3°F-2.6°C 72% 11.3 mph NNW18.2 kmh NNW 27.3 mph43.9 kmh 29.76 in1007.8 mb 0.00 in0.0 mm 0.00 in0.0 mm 0.04 in1.0 mm
02:25 PM 35.2°F1.8°C 27.1°F-2.7°C 72% 11.2 mph NW18.0 kmh NW 27.3 mph43.9 kmh 29.75 in1007.5 mb 0.00 in0.0 mm 0.00 in0.0 mm 0.04 in1.0 mm
02:30 PM 35.2°F1.8°C 26.8°F-2.9°C 71% 11.5 mph NW18.5 kmh NW 28.2 mph45.4 kmh 29.76 in1007.8 mb 0.00 in0.0 mm 0.00 in0.0 mm 0.04 in1.0 mm
02:35 PM 35.6°F2.0°C 27.1°F-2.7°C 71% 11.1 mph NW17.9 kmh NW 31.1 mph50.1 kmh 29.76 in1007.8 mb 0.00 in0.0 mm 0.00 in0.0 mm 0.04 in1.0 mm
02:40 PM 35.6°F2.0°C 27.1°F-2.7°C 71% 11.2 mph NNW18.0 kmh NNW 33.6 mph54.1 kmh 29.76 in1007.8 mb 0.00 in0.0 mm 0.00 in0.0 mm 0.04 in1.0 mm
02:45 PM 35.6°F2.0°C 27.1°F-2.7°C 71% 12.1 mph N19.5 kmh N 33.6 mph54.1 kmh 29.75 in1007.5 mb 0.00 in0.0 mm 0.00 in0.0 mm 0.04 in1.0 mm
02:50 PM 36.0°F2.2°C 27.5°F-2.5°C 71% 11.2 mph NE18.0 kmh NE 31.1 mph50.1 kmh 29.76 in1007.8 mb 0.00 in0.0 mm 0.00 in0.0 mm 0.04 in1.0 mm
02:55 PM 36.1°F2.3°C 27.3°F-2.6°C 70% 12.3 mph NW19.8 kmh NW 37.4 mph60.2 kmh 29.75 in1007.5 mb 0.00 in0.0 mm 0.00 in0.0 mm 0.04 in1.0 mm
03:00 PM 36.1°F2.3°C 27.3°F-2.6°C 70% 14.0 mph NW22.5 kmh NW 37.4 mph60.2 kmh 29.75 in1007.5 mb 0.00 in0.0 mm 0.00 in0.0 mm 0.04 in1.0 mm
03:05 PM 36.9°F2.7°C 28.0°F-2.2°C 70% 12.3 mph NW19.8 kmh NW 34.9 mph56.2 kmh 29.76 in1007.8 mb 0.00 in0.0 mm 0.00 in0.0 mm 0.04 in1.0 mm
03:10 PM 36.5°F2.5°C 27.7°F-2.4°C 70% 9.8 mph WNW15.8 kmh WNW 27.3 mph43.9 kmh 29.76 in1007.8 mb 0.00 in0.0 mm 0.00 in0.0 mm 0.04 in1.0 mm
03:15 PM 37.0°F2.8°C 28.2°F-2.1°C 70% 8.2 mph WNW13.2 kmh WNW 22.1 mph35.6 kmh 29.77 in1008.1 mb 0.00 in0.0 mm 0.00 in0.0 mm 0.04 in1.0 mm
03:20 PM 37.2°F2.9°C 28.4°F-2.0°C 70% 7.3 mph W11.7 kmh W 22.1 mph35.6 kmh 29.78 in1008.5 mb 0.00 in0.0 mm 0.00 in0.0 mm 0.04 in1.0 mm
03:25 PM 37.8°F3.2°C 28.9°F-1.7°C 70% 5.8 mph WNW9.3 kmh WNW 21.3 mph34.3 kmh 29.78 in1008.5 mb 0.00 in0.0 mm 0.00 in0.0 mm 0.04 in1.0 mm
03:30 PM 37.4°F3.0°C 28.5°F-1.9°C 70% 3.9 mph W6.3 kmh W 9.8 mph15.8 kmh 29.78 in1008.5 mb 0.00 in0.0 mm 0.00 in0.0 mm 0.04 in1.0 mm
03:35 PM 37.4°F3.0°C 28.9°F-1.7°C 71% 3.2 mph W5.1 kmh W 10.7 mph17.2 kmh 29.78 in1008.5 mb 0.00 in0.0 mm 0.00 in0.0 mm 0.04 in1.0 mm
03:40 PM 37.6°F3.1°C 29.0°F-1.7°C 71% 4.3 mph WNW6.9 kmh WNW 18.3 mph29.5 kmh 29.78 in1008.5 mb 0.00 in0.0 mm 0.00 in0.0 mm 0.04 in1.0 mm
03:45 PM 37.4°F3.0°C 28.9°F-1.7°C 71% 7.0 mph WSW11.3 kmh WSW 18.3 mph29.5 kmh 29.79 in1008.8 mb 0.00 in0.0 mm 0.00 in0.0 mm 0.04 in1.0 mm
03:50 PM 36.9°F2.7°C 28.4°F-2.0°C 71% 8.4 mph WNW13.5 kmh WNW 22.8 mph36.7 kmh 29.79 in1008.8 mb 0.00 in0.0 mm 0.00 in0.0 mm 0.04 in1.0 mm
03:55 PM 36.9°F2.7°C 28.4°F-2.0°C 71% 7.4 mph NW11.9 kmh NW 22.8 mph36.7 kmh 29.78 in1008.5 mb 0.00 in0.0 mm 0.00 in0.0 mm 0.04 in1.0 mm
04:00 PM 36.9°F2.7°C 28.7°F-1.8°C 72% 6.1 mph WNW9.8 kmh WNW 14.5 mph23.3 kmh 29.78 in1008.5 mb 0.00 in0.0 mm 0.00 in0.0 mm 0.04 in1.0 mm
04:05 PM 37.0°F2.8°C 28.9°F-1.7°C 72% 5.6 mph NW9.0 kmh NW 14.5 mph23.3 kmh 29.78 in1008.5 mb 0.00 in0.0 mm 0.00 in0.0 mm 0.04 in1.0 mm
04:10 PM 37.2°F2.9°C 29.0°F-1.7°C 72% 6.3 mph W10.1 kmh W 13.6 mph21.9 kmh 29.78 in1008.5 mb 0.00 in0.0 mm 0.00 in0.0 mm 0.04 in1.0 mm
04:15 PM 37.6°F3.1°C 29.0°F-1.7°C 71% 6.7 mph WSW10.8 kmh WSW 15.9 mph25.6 kmh 29.78 in1008.5 mb 0.00 in0.0 mm 0.00 in0.0 mm 0.04 in1.0 mm
04:20 PM 37.4°F3.0°C 28.9°F-1.7°C 71% 5.8 mph WNW9.3 kmh WNW 15.9 mph25.6 kmh 29.78 in1008.5 mb 0.00 in0.0 mm 0.00 in0.0 mm 0.04 in1.0 mm
04:25 PM 37.4°F3.0°C 28.9°F-1.7°C 71% 6.1 mph WNW9.8 kmh WNW 14.5 mph23.3 kmh 29.78 in1008.5 mb 0.00 in0.0 mm 0.00 in0.0 mm 0.04 in1.0 mm
04:30 PM 37.2°F2.9°C 28.7°F-1.8°C 71% 5.8 mph WSW9.3 kmh WSW 14.5 mph23.3 kmh 29.78 in1008.5 mb 0.00 in0.0 mm 0.00 in0.0 mm 0.04 in1.0 mm
04:35 PM 37.0°F2.8°C 28.5°F-1.9°C 71% 6.0 mph WSW9.7 kmh WSW 15.2 mph24.5 kmh 29.78 in1008.5 mb 0.00 in0.0 mm 0.00 in0.0 mm 0.04 in1.0 mm
04:40 PM 36.9°F2.7°C 28.7°F-1.8°C 72% 6.1 mph WSW9.8 kmh WSW 15.2 mph24.5 kmh 29.78 in1008.5 mb 0.00 in0.0 mm 0.00 in0.0 mm 0.04 in1.0 mm
04:45 PM 36.9°F2.7°C 28.7°F-1.8°C 72% 5.6 mph WSW9.0 kmh WSW 15.2 mph24.5 kmh 29.79 in1008.8 mb 0.00 in0.0 mm 0.00 in0.0 mm 0.04 in1.0 mm
04:50 PM 36.9°F2.7°C 28.7°F-1.8°C 72% 6.1 mph WSW9.8 kmh WSW 15.2 mph24.5 kmh 29.79 in1008.8 mb 0.00 in0.0 mm 0.00 in0.0 mm 0.04 in1.0 mm
04:55 PM 36.9°F2.7°C 28.7°F-1.8°C 72% 5.6 mph SW9.0 kmh SW 15.2 mph24.5 kmh 29.79 in1008.8 mb 0.00 in0.0 mm 0.00 in0.0 mm 0.04 in1.0 mm
05:00 PM 36.7°F2.6°C 28.9°F-1.7°C 73% 5.0 mph WSW8.0 kmh WSW 12.1 mph19.5 kmh 29.79 in1008.8 mb 0.00 in0.0 mm 0.00 in0.0 mm 0.04 in1.0 mm
05:05 PM 36.5°F2.5°C 28.7°F-1.8°C 73% 4.7 mph WSW7.6 kmh WSW 9.8 mph15.8 kmh 29.79 in1008.8 mb 0.00 in0.0 mm 0.00 in0.0 mm 0.04 in1.0 mm
05:10 PM 36.5°F2.5°C 28.7°F-1.8°C 73% 4.3 mph WSW6.9 kmh WSW 11.4 mph18.3 kmh 29.79 in1008.8 mb 0.00 in0.0 mm 0.00 in0.0 mm 0.04 in1.0 mm
05:15 PM 36.1°F2.3°C 28.3°F-2.1°C 73% 4.9 mph WSW7.9 kmh WSW 11.4 mph18.3 kmh 29.79 in1008.8 mb 0.00 in0.0 mm 0.00 in0.0 mm 0.04 in1.0 mm
05:20 PM 36.1°F2.3°C 28.3°F-2.1°C 73% 5.7 mph W9.2 kmh W 10.7 mph17.2 kmh 29.79 in1008.8 mb 0.00 in0.0 mm 0.00 in0.0 mm 0.04 in1.0 mm
05:25 PM 36.0°F2.2°C 28.5°F-1.9°C 74% 4.7 mph WSW7.6 kmh WSW 10.7 mph17.2 kmh 29.79 in1008.8 mb 0.00 in0.0 mm 0.00 in0.0 mm 0.04 in1.0 mm
05:30 PM 35.8°F2.1°C 28.3°F-2.1°C 74% 4.2 mph WSW6.8 kmh WSW 10.7 mph17.2 kmh 29.80 in1009.1 mb 0.00 in0.0 mm 0.00 in0.0 mm 0.04 in1.0 mm
05:35 PM 35.8°F2.1°C 28.3°F-2.1°C 74% 5.1 mph WSW8.2 kmh WSW 11.4 mph18.3 kmh 29.80 in1009.1 mb 0.00 in0.0 mm 0.00 in0.0 mm 0.04 in1.0 mm
05:40 PM 36.0°F2.2°C 28.5°F-1.9°C 74% 5.0 mph WSW8.0 kmh WSW 11.4 mph18.3 kmh 29.80 in1009.1 mb 0.00 in0.0 mm 0.00 in0.0 mm 0.04 in1.0 mm
05:45 PM 36.0°F2.2°C 28.5°F-1.9°C 74% 4.4 mph SW7.1 kmh SW 10.7 mph17.2 kmh 29.81 in1009.5 mb 0.00 in0.0 mm 0.00 in0.0 mm 0.04 in1.0 mm
05:50 PM 36.0°F2.2°C 28.8°F-1.8°C 75% 4.5 mph WSW7.2 kmh WSW 9.8 mph15.8 kmh 29.81 in1009.5 mb 0.00 in0.0 mm 0.00 in0.0 mm 0.04 in1.0 mm
05:55 PM 36.1°F2.3°C 28.7°F-1.8°C 74% 5.1 mph W8.2 kmh W 9.8 mph15.8 kmh 29.81 in1009.5 mb 0.00 in0.0 mm 0.00 in0.0 mm 0.04 in1.0 mm
06:00 PM 36.1°F2.3°C 29.0°F-1.7°C 75% 4.7 mph W7.6 kmh W 9.8 mph15.8 kmh 29.81 in1009.5 mb 0.00 in0.0 mm 0.00 in0.0 mm 0.04 in1.0 mm
06:05 PM 36.1°F2.3°C 29.0°F-1.7°C 75% 4.3 mph W6.9 kmh W 9.8 mph15.8 kmh 29.81 in1009.5 mb 0.00 in0.0 mm 0.00 in0.0 mm 0.04 in1.0 mm
06:10 PM 36.1°F2.3°C 28.7°F-1.8°C 74% 3.9 mph W6.3 kmh W 9.2 mph14.8 kmh 29.82 in1009.8 mb 0.00 in0.0 mm 0.00 in0.0 mm 0.04 in1.0 mm
06:15 PM 36.1°F2.3°C 28.7°F-1.8°C 74% 3.5 mph W5.6 kmh W 7.6 mph12.2 kmh 29.82 in1009.8 mb 0.00 in0.0 mm 0.00 in0.0 mm 0.04 in1.0 mm
06:20 PM 36.1°F2.3°C 28.7°F-1.8°C 74% 3.3 mph WSW5.3 kmh WSW 7.6 mph12.2 kmh 29.82 in1009.8 mb 0.00 in0.0 mm 0.00 in0.0 mm 0.04 in1.0 mm
06:25 PM 36.0°F2.2°C 28.5°F-1.9°C 74% 2.9 mph SW4.7 kmh SW 7.6 mph12.2 kmh 29.82 in1009.8 mb 0.00 in0.0 mm 0.00 in0.0 mm 0.04 in1.0 mm
06:30 PM 35.8°F2.1°C 28.3°F-2.1°C 74% 2.9 mph SW4.7 kmh SW 9.2 mph14.8 kmh 29.82 in1009.8 mb 0.00 in0.0 mm 0.00 in0.0 mm 0.04 in1.0 mm
06:35 PM 36.1°F2.3°C 29.0°F-1.7°C 75% 3.0 mph SW4.8 kmh SW 9.2 mph14.8 kmh 29.82 in1009.8 mb 0.00 in0.0 mm 0.00 in0.0 mm 0.04 in1.0 mm
06:40 PM 36.1°F2.3°C 29.0°F-1.7°C 75% 3.2 mph SSW5.1 kmh SSW 7.6 mph12.2 kmh 29.82 in1009.8 mb 0.00 in0.0 mm 0.00 in0.0 mm 0.04 in1.0 mm
06:45 PM 36.1°F2.3°C 29.0°F-1.7°C 75% 3.4 mph SW5.5 kmh SW 7.6 mph12.2 kmh 29.82 in1009.8 mb 0.00 in0.0 mm 0.00 in0.0 mm 0.04 in1.0 mm
06:50 PM 36.1°F2.3°C 29.0°F-1.7°C 75% 3.1 mph SW5.0 kmh SW 7.6 mph12.2 kmh 29.83 in1010.2 mb 0.00 in0.0 mm 0.00 in0.0 mm 0.04 in1.0 mm
06:55 PM 36.3°F2.4°C 29.2°F-1.6°C 75% 3.2 mph SW5.1 kmh SW 7.6 mph12.2 kmh 29.83 in1010.2 mb 0.00 in0.0 mm 0.00 in0.0 mm 0.04 in1.0 mm
07:00 PM 36.3°F2.4°C 29.2°F-1.6°C 75% 2.4 mph WSW3.9 kmh WSW 7.6 mph12.2 kmh 29.83 in1010.2 mb 0.00 in0.0 mm 0.00 in0.0 mm 0.04 in1.0 mm
07:05 PM 36.0°F2.2°C 28.8°F-1.8°C 75% 1.1 mph WSW1.8 kmh WSW 4.5 mph7.2 kmh 29.84 in1010.5 mb 0.00 in0.0 mm 0.00 in0.0 mm 0.04 in1.0 mm
07:10 PM 36.0°F2.2°C 28.8°F-1.8°C 75% 1.9 mph WNW3.1 kmh WNW 6.9 mph11.1 kmh 29.84 in1010.5 mb 0.00 in0.0 mm 0.00 in0.0 mm 0.04 in1.0 mm
07:15 PM 35.6°F2.0°C 28.5°F-1.9°C 75% 3.0 mph NW4.8 kmh NW 6.9 mph11.1 kmh 29.84 in1010.5 mb 0.00 in0.0 mm 0.00 in0.0 mm 0.04 in1.0 mm
07:20 PM 35.6°F2.0°C 28.5°F-1.9°C 75% 3.3 mph W5.3 kmh W 7.6 mph12.2 kmh 29.84 in1010.5 mb 0.00 in0.0 mm 0.00 in0.0 mm 0.04 in1.0 mm
07:25 PM 35.6°F2.0°C 28.8°F-1.8°C 76% 3.8 mph WSW6.1 kmh WSW 9.8 mph15.8 kmh 29.84 in1010.5 mb 0.00 in0.0 mm 0.00 in0.0 mm 0.04 in1.0 mm
07:30 PM 35.6°F2.0°C 28.8°F-1.8°C 76% 4.2 mph WSW6.8 kmh WSW 9.8 mph15.8 kmh 29.84 in1010.5 mb 0.00 in0.0 mm 0.00 in0.0 mm 0.04 in1.0 mm
07:35 PM 35.6°F2.0°C 28.5°F-1.9°C 75% 3.8 mph WSW6.1 kmh WSW 9.8 mph15.8 kmh 29.85 in1010.8 mb 0.00 in0.0 mm 0.00 in0.0 mm 0.04 in1.0 mm
07:40 PM 35.8°F2.1°C 29.0°F-1.7°C 76% 3.4 mph WSW5.5 kmh WSW 16.8 mph27.0 kmh 29.85 in1010.8 mb 0.00 in0.0 mm 0.00 in0.0 mm 0.04 in1.0 mm
07:45 PM 36.0°F2.2°C 28.8°F-1.8°C 75% 3.9 mph W6.3 kmh W 16.8 mph27.0 kmh 29.85 in1010.8 mb 0.00 in0.0 mm 0.00 in0.0 mm 0.04 in1.0 mm
07:50 PM 36.1°F2.3°C 29.0°F-1.7°C 75% 4.6 mph WNW7.4 kmh WNW 16.8 mph27.0 kmh 29.86 in1011.2 mb 0.00 in0.0 mm 0.00 in0.0 mm 0.04 in1.0 mm
07:55 PM 36.3°F2.4°C 29.2°F-1.6°C 75% 5.1 mph WNW8.2 kmh WNW 12.1 mph19.5 kmh 29.86 in1011.2 mb 0.00 in0.0 mm 0.00 in0.0 mm 0.04 in1.0 mm
08:00 PM 36.3°F2.4°C 29.2°F-1.6°C 75% 5.0 mph WNW8.0 kmh WNW 12.1 mph19.5 kmh 29.86 in1011.2 mb 0.00 in0.0 mm 0.00 in0.0 mm 0.04 in1.0 mm
08:05 PM 36.5°F2.5°C 29.3°F-1.5°C 75% 4.1 mph W6.6 kmh W 10.7 mph17.2 kmh 29.86 in1011.2 mb 0.00 in0.0 mm 0.00 in0.0 mm 0.04 in1.0 mm
08:10 PM 36.7°F2.6°C 29.5°F-1.4°C 75% 3.7 mph WSW6.0 kmh WSW 9.2 mph14.8 kmh 29.87 in1011.5 mb 0.00 in0.0 mm 0.00 in0.0 mm 0.04 in1.0 mm
08:15 PM 36.7°F2.6°C 29.5°F-1.4°C 75% 3.1 mph WSW5.0 kmh WSW 6.9 mph11.1 kmh 29.87 in1011.5 mb 0.00 in0.0 mm 0.00 in0.0 mm 0.04 in1.0 mm
08:20 PM 36.9°F2.7°C 29.7°F-1.3°C 75% 2.2 mph WSW3.5 kmh WSW 6.0 mph9.7 kmh 29.88 in1011.9 mb 0.00 in0.0 mm 0.00 in0.0 mm 0.04 in1.0 mm
08:25 PM 36.7°F2.6°C 29.5°F-1.4°C 75% 2.1 mph SW3.4 kmh SW 5.4 mph8.7 kmh 29.88 in1011.9 mb 0.00 in0.0 mm 0.00 in0.0 mm 0.04 in1.0 mm
08:30 PM 36.7°F2.6°C 29.5°F-1.4°C 75% 1.9 mph SW3.1 kmh SW 5.4 mph8.7 kmh 29.88 in1011.9 mb 0.00 in0.0 mm 0.00 in0.0 mm 0.04 in1.0 mm
08:35 PM 36.5°F2.5°C 29.3°F-1.5°C 75% 2.2 mph WSW3.5 kmh WSW 8.3 mph13.4 kmh 29.88 in1011.9 mb 0.00 in0.0 mm 0.00 in0.0 mm 0.04 in1.0 mm
08:40 PM 36.5°F2.5°C 29.3°F-1.5°C 75% 3.8 mph W6.1 kmh W 10.7 mph17.2 kmh 29.89 in1012.2 mb 0.00 in0.0 mm 0.00 in0.0 mm 0.04 in1.0 mm
08:45 PM 36.7°F2.6°C 29.5°F-1.4°C 75% 4.5 mph W7.2 kmh W 10.7 mph17.2 kmh 29.89 in1012.2 mb 0.00 in0.0 mm 0.00 in0.0 mm 0.04 in1.0 mm
08:50 PM 36.7°F2.6°C 29.5°F-1.4°C 75% 4.4 mph W7.1 kmh W 11.4 mph18.3 kmh 29.89 in1012.2 mb 0.00 in0.0 mm 0.00 in0.0 mm 0.04 in1.0 mm
08:55 PM 36.7°F2.6°C 29.5°F-1.4°C 75% 3.8 mph W6.1 kmh W 11.4 mph18.3 kmh 29.89 in1012.2 mb 0.00 in0.0 mm 0.00 in0.0 mm 0.04 in1.0 mm
09:00 PM 36.7°F2.6°C 29.5°F-1.4°C 75% 2.9 mph W4.7 kmh W 6.9 mph11.1 kmh 29.89 in1012.2 mb 0.00 in0.0 mm 0.00 in0.0 mm 0.04 in1.0 mm
09:05 PM 36.7°F2.6°C 29.2°F-1.6°C 74% 2.6 mph WSW4.2 kmh WSW 7.6 mph12.2 kmh 29.89 in1012.2 mb 0.00 in0.0 mm 0.00 in0.0 mm 0.04 in1.0 mm
09:10 PM 36.5°F2.5°C 29.0°F-1.7°C 74% 2.8 mph WSW4.5 kmh WSW 7.6 mph12.2 kmh 29.90 in1012.5 mb 0.00 in0.0 mm 0.00 in0.0 mm 0.04 in1.0 mm
09:15 PM 36.1°F2.3°C 28.7°F-1.8°C 74% 3.5 mph WNW5.6 kmh WNW 9.8 mph15.8 kmh 29.90 in1012.5 mb 0.00 in0.0 mm 0.00 in0.0 mm 0.04 in1.0 mm
09:20 PM 36.1°F2.3°C 28.7°F-1.8°C 74% 4.2 mph WNW6.8 kmh WNW 9.8 mph15.8 kmh 29.90 in1012.5 mb 0.00 in0.0 mm 0.00 in0.0 mm 0.04 in1.0 mm
09:25 PM 36.1°F2.3°C 28.7°F-1.8°C 74% 4.8 mph W7.7 kmh W 13.6 mph21.9 kmh 29.90 in1012.5 mb 0.00 in0.0 mm 0.00 in0.0 mm 0.04 in1.0 mm
09:30 PM 36.3°F2.4°C 28.8°F-1.8°C 74% 4.4 mph W7.1 kmh W 13.6 mph21.9 kmh 29.90 in1012.5 mb 0.00 in0.0 mm 0.00 in0.0 mm 0.04 in1.0 mm
09:35 PM 36.1°F2.3°C 28.7°F-1.8°C 74% 3.4 mph W5.5 kmh W 9.2 mph14.8 kmh 29.91 in1012.9 mb 0.00 in0.0 mm 0.00 in0.0 mm 0.04 in1.0 mm
09:40 PM 36.1°F2.3°C 28.7°F-1.8°C 74% 3.6 mph W5.8 kmh W 9.2 mph14.8 kmh 29.91 in1012.9 mb 0.00 in0.0 mm 0.00 in0.0 mm 0.04 in1.0 mm
09:45 PM 36.3°F2.4°C 28.8°F-1.8°C 74% 4.1 mph W6.6 kmh W 9.2 mph14.8 kmh 29.91 in1012.9 mb 0.00 in0.0 mm 0.00 in0.0 mm 0.04 in1.0 mm
09:50 PM 36.1°F2.3°C 28.3°F-2.1°C 73% 3.8 mph WSW6.1 kmh WSW 9.2 mph14.8 kmh 29.91 in1012.9 mb 0.00 in0.0 mm 0.00 in0.0 mm 0.04 in1.0 mm
09:55 PM 36.1°F2.3°C 28.3°F-2.1°C 73% 4.2 mph SW6.8 kmh SW 9.2 mph14.8 kmh 29.92 in1013.2 mb 0.00 in0.0 mm 0.00 in0.0 mm 0.04 in1.0 mm
10:00 PM 36.0°F2.2°C 28.2°F-2.1°C 73% 4.2 mph SW6.8 kmh SW 9.2 mph14.8 kmh 29.92 in1013.2 mb 0.00 in0.0 mm 0.00 in0.0 mm 0.04 in1.0 mm
10:05 PM 36.1°F2.3°C 28.7°F-1.8°C 74% 3.2 mph WSW5.1 kmh WSW 6.0 mph9.7 kmh 29.92 in1013.2 mb 0.00 in0.0 mm 0.00 in0.0 mm 0.04 in1.0 mm
10:10 PM 36.0°F2.2°C 28.5°F-1.9°C 74% 3.5 mph SW5.6 kmh SW 6.0 mph9.7 kmh 29.93 in1013.5 mb 0.00 in0.0 mm 0.00 in0.0 mm 0.04 in1.0 mm
10:15 PM 35.8°F2.1°C 28.3°F-2.1°C 74% 3.3 mph SW5.3 kmh SW 6.0 mph9.7 kmh 29.93 in1013.5 mb 0.00 in0.0 mm 0.00 in0.0 mm 0.04 in1.0 mm
10:20 PM 35.8°F2.1°C 28.3°F-2.1°C 74% 2.4 mph SW3.9 kmh SW 6.0 mph9.7 kmh 29.93 in1013.5 mb 0.00 in0.0 mm 0.00 in0.0 mm 0.04 in1.0 mm
10:25 PM 36.0°F2.2°C 28.5°F-1.9°C 74% 1.7 mph WSW2.7 kmh WSW 4.5 mph7.2 kmh 29.93 in1013.5 mb 0.00 in0.0 mm 0.00 in0.0 mm 0.04 in1.0 mm
10:30 PM 35.8°F2.1°C 28.3°F-2.1°C 74% 1.2 mph W1.9 kmh W 3.8 mph6.1 kmh 29.93 in1013.5 mb 0.00 in0.0 mm 0.00 in0.0 mm 0.04 in1.0 mm
10:35 PM 35.8°F2.1°C 28.3°F-2.1°C 74% 1.4 mph WSW2.3 kmh WSW 6.0 mph9.7 kmh 29.93 in1013.5 mb 0.00 in0.0 mm 0.00 in0.0 mm 0.04 in1.0 mm
10:40 PM 35.8°F2.1°C 28.3°F-2.1°C 74% 1.4 mph SW2.3 kmh SW 6.0 mph9.7 kmh 29.93 in1013.5 mb 0.00 in0.0 mm 0.00 in0.0 mm 0.04 in1.0 mm
10:45 PM 35.6°F2.0°C 28.1°F-2.2°C 74% 1.5 mph WSW2.4 kmh WSW 5.4 mph8.7 kmh 29.93 in1013.5 mb 0.00 in0.0 mm 0.00 in0.0 mm 0.04 in1.0 mm
10:50 PM 35.4°F1.9°C 28.0°F-2.2°C 74% 1.4 mph WSW2.3 kmh WSW 3.8 mph6.1 kmh 29.93 in1013.5 mb 0.00 in0.0 mm 0.00 in0.0 mm 0.04 in1.0 mm
10:55 PM 35.2°F1.8°C 27.8°F-2.3°C 74% 1.3 mph WSW2.1 kmh WSW 3.8 mph6.1 kmh 29.94 in1013.9 mb 0.00 in0.0 mm 0.00 in0.0 mm 0.04 in1.0 mm
11:00 PM 35.1°F1.7°C 27.6°F-2.4°C 74% 1.3 mph WSW2.1 kmh WSW 3.8 mph6.1 kmh 29.94 in1013.9 mb 0.00 in0.0 mm 0.00 in0.0 mm 0.04 in1.0 mm
11:05 PM 34.9°F1.6°C 27.5°F-2.5°C 74% 1.2 mph WSW1.9 kmh WSW 3.8 mph6.1 kmh 29.94 in1013.9 mb 0.00 in0.0 mm 0.00 in0.0 mm 0.04 in1.0 mm
11:10 PM 34.9°F1.6°C 27.5°F-2.5°C 74% 1.5 mph SW2.4 kmh SW 3.8 mph6.1 kmh 29.95 in1014.2 mb 0.00 in0.0 mm 0.00 in0.0 mm 0.04 in1.0 mm
11:15 PM 34.5°F1.4°C 27.1°F-2.7°C 74% 2.0 mph SW3.2 kmh SW 3.8 mph6.1 kmh 29.95 in1014.2 mb 0.00 in0.0 mm 0.00 in0.0 mm 0.04 in1.0 mm
11:20 PM 34.5°F1.4°C 27.1°F-2.7°C 74% 1.8 mph SW2.9 kmh SW 3.8 mph6.1 kmh 29.96 in1014.6 mb 0.00 in0.0 mm 0.00 in0.0 mm 0.04 in1.0 mm
11:25 PM 34.3°F1.3°C 26.9°F-2.8°C 74% 1.1 mph SW1.8 kmh SW 5.4 mph8.7 kmh 29.96 in1014.6 mb 0.00 in0.0 mm 0.00 in0.0 mm 0.04 in1.0 mm
11:30 PM 34.3°F1.3°C 26.9°F-2.8°C 74% 0.9 mph WSW1.4 kmh WSW 5.4 mph8.7 kmh 29.96 in1014.6 mb 0.00 in0.0 mm 0.00 in0.0 mm 0.04 in1.0 mm
11:35 PM 34.2°F1.2°C 26.8°F-2.9°C 74% 0.5 mph WSW0.8 kmh WSW 5.4 mph8.7 kmh 29.96 in1014.6 mb 0.00 in0.0 mm 0.00 in0.0 mm 0.04 in1.0 mm
11:40 PM 34.0°F1.1°C 26.6°F-3.0°C 74% 0.4 mph SW0.6 kmh SW 2.2 mph3.5 kmh 29.96 in1014.6 mb 0.00 in0.0 mm 0.00 in0.0 mm 0.04 in1.0 mm
11:45 PM 34.0°F1.1°C 26.6°F-3.0°C 74% 0.4 mph SW0.6 kmh SW 2.2 mph3.5 kmh 29.96 in1014.6 mb 0.00 in0.0 mm 0.00 in0.0 mm 0.04 in1.0 mm
11:50 PM 34.0°F1.1°C 26.6°F-3.0°C 74% 0.2 mph WSW0.3 kmh WSW 2.2 mph3.5 kmh 29.96 in1014.6 mb 0.00 in0.0 mm 0.00 in0.0 mm 0.04 in1.0 mm
11:55 PM 34.0°F1.1°C 26.6°F-3.0°C 74% 0.1 mph WSW0.2 kmh WSW 2.2 mph3.5 kmh 29.96 in1014.6 mb 0.00 in0.0 mm 0.00 in0.0 mm 0.04 in1.0 mm